Time;durP1;ratioP1;P1;durP2;ratioP2;P2;SDS_P1;SDS_P2;PMS_P1;PMS_P2;Temp;Humidity;BMP_temperature;BMP_pressure;BME280_temperature;BME280_humidity;BME280_pressure;Samples;Min_cycle;Max_cycle;Signal;HPM_P1;HPM_P2
2021/12/05 00:17:38;;;;;;;8.93;3.05;;;3.70;99.90;;;;;;484028;245;27976;-75
2021/12/05 00:23:51;;;;;;;5.30;2.92;;;3.80;99.90;;;;;;484025;246;27597;-75
2021/12/05 00:25:50;;;;;;;7.85;3.15;;;3.70;99.90;;;;;;483693;246;28739;-75
2021/12/05 00:27:58;;;;;;;9.95;3.00;;;3.80;99.90;;;;;;483891;246;28039;-75
2021/12/05 00:32:02;;;;;;;9.18;2.75;;;3.80;99.90;;;;;;484029;245;27511;-75
2021/12/05 00:48:56;;;;;;;20.58;3.30;;;3.70;99.90;;;;;;484067;245;27641;-75
2021/12/05 00:54:08;;;;;;;6.40;2.58;;;3.70;99.90;;;;;;483986;245;27597;-75
2021/12/05 00:57:50;;;;;;;7.53;3.30;;;3.60;99.90;;;;;;484017;245;27576;-74
2021/12/05 01:15:11;;;;;;;6.50;2.70;;;3.60;99.90;;;;;;493801;240;28052;-76
2021/12/05 01:17:14;;;;;;;2.42;2.15;;;3.50;99.90;;;;;;493803;241;30046;-75
2021/12/05 01:19:13;;;;;;;6.80;3.05;;;3.50;99.90;;;;;;493729;241;27961;-74
2021/12/05 01:21:15;;;;;;;6.80;2.70;;;3.50;99.90;;;;;;493861;241;27513;-74
2021/12/05 01:25:41;;;;;;;4.90;2.70;;;3.50;99.90;;;;;;489595;243;27491;-75
2021/12/05 01:27:41;;;;;;;6.72;2.87;;;3.50;99.90;;;;;;491120;241;27513;-74
2021/12/05 01:30:02;;;;;;;3.55;2.53;;;3.50;99.90;;;;;;493470;241;27894;-74
2021/12/05 01:31:56;;;;;;;3.05;2.10;;;3.50;99.90;;;;;;492949;241;27603;-74
2021/12/05 01:33:58;;;;;;;5.03;2.45;;;3.40;99.90;;;;;;493305;241;27605;-74
2021/12/05 01:38:15;;;;;;;3.08;2.65;;;3.50;99.90;;;;;;493839;241;27529;-74
2021/12/05 01:41:02;;;;;;;5.18;2.45;;;3.50;99.90;;;;;;493450;241;27459;-75
2021/12/05 01:46:57;;;;;;;3.75;2.35;;;3.50;99.90;;;;;;493857;240;27532;-74
2021/12/05 01:53:14;;;;;;;5.25;2.40;;;3.50;99.90;;;;;;493863;241;27467;-75
2021/12/05 01:55:31;;;;;;;2.08;1.87;;;3.50;99.90;;;;;;493069;241;27537;-74
2021/12/05 01:57:35;;;;;;;4.00;2.28;;;3.50;99.90;;;;;;492776;241;27474;-74
2021/12/05 02:10:51;;;;;;;2.40;1.90;;;3.50;99.90;;;;;;493836;241;27995;-74
2021/12/05 02:33:47;;;;;;;5.75;2.65;;;3.50;99.90;;;;;;493839;241;27502;-74
2021/12/05 02:35:55;;;;;;;2.17;1.87;;;3.50;99.90;;;;;;492848;241;27518;-75
2021/12/05 02:40:19;;;;;;;3.05;1.67;;;3.50;99.90;;;;;;493858;240;27481;-75
2021/12/05 02:42:12;;;;;;;5.10;2.00;;;3.50;99.90;;;;;;493103;241;27505;-74
2021/12/05 02:44:21;;;;;;;2.42;2.25;;;3.50;99.90;;;;;;493646;241;27612;-75
2021/12/05 02:46:17;;;;;;;2.53;1.80;;;3.50;99.90;;;;;;493573;241;27859;-75
2021/12/05 02:48:20;;;;;;;1.90;1.60;;;3.50;99.90;;;;;;493826;241;27500;-75
2021/12/05 02:50:19;;;;;;;2.70;2.10;;;3.50;99.90;;;;;;493788;241;27624;-75
2021/12/05 02:52:25;;;;;;;2.55;1.58;;;3.50;99.90;;;;;;493849;241;27560;-75
2021/12/05 02:54:22;;;;;;;1.60;1.50;;;3.50;99.90;;;;;;493617;241;27970;-74
2021/12/05 02:56:24;;;;;;;3.22;1.70;;;3.50;99.90;;;;;;493841;241;28159;-74
2021/12/05 02:58:26;;;;;;;4.18;1.95;;;3.40;99.90;;;;;;493779;241;28006;-75
2021/12/05 03:00:34;;;;;;;3.05;1.98;;;3.50;99.90;;;;;;493770;241;27970;-75
2021/12/05 03:02:38;;;;;;;2.15;1.77;;;3.40;99.90;;;;;;493382;241;27527;-75
2021/12/05 03:04:31;;;;;;;2.80;1.85;;;3.40;99.90;;;;;;493295;241;27593;-75
2021/12/05 03:06:31;;;;;;;2.85;1.70;;;3.40;99.90;;;;;;493677;241;27588;-74
2021/12/05 03:08:30;;;;;;;2.53;2.05;;;3.40;99.90;;;;;;493764;241;27481;-74
2021/12/05 03:10:31;;;;;;;2.78;2.10;;;3.40;99.90;;;;;;493840;241;27550;-75
2021/12/05 03:12:35;;;;;;;2.17;2.00;;;3.40;99.90;;;;;;493863;241;27488;-74
2021/12/05 03:14:34;;;;;;;4.15;2.30;;;3.50;99.90;;;;;;493786;241;27494;-74
2021/12/05 03:16:35;;;;;;;3.30;2.05;;;3.40;99.90;;;;;;493886;241;27522;-74
2021/12/05 03:18:36;;;;;;;3.22;2.22;;;3.40;99.90;;;;;;493859;241;27528;-74
2021/12/05 03:20:38;;;;;;;2.90;2.28;;;3.40;99.90;;;;;;493859;241;27516;-74
2021/12/05 03:22:39;;;;;;;4.12;3.58;;;3.30;99.90;;;;;;493837;241;27901;-75
2021/12/05 03:24:40;;;;;;;3.30;2.58;;;3.30;99.90;;;;;;493852;241;28050;-75
2021/12/05 03:26:41;;;;;;;6.05;3.00;;;3.30;99.90;;;;;;493854;241;29088;-74
2021/12/05 03:28:43;;;;;;;2.60;2.40;;;3.30;99.90;;;;;;493864;241;27930;-75
2021/12/05 03:30:45;;;;;;;6.30;2.50;;;3.30;99.90;;;;;;493860;241;27579;-75
2021/12/05 03:32:48;;;;;;;4.53;2.55;;;3.30;99.90;;;;;;493807;241;27616;-74
2021/12/05 03:34:46;;;;;;;3.30;2.17;;;3.30;99.90;;;;;;493713;241;27523;-74
2021/12/05 03:36:48;;;;;;;3.60;2.50;;;3.30;99.90;;;;;;493883;241;27521;-74
2021/12/05 03:38:49;;;;;;;7.85;2.92;;;3.30;99.90;;;;;;493850;241;27580;-74
2021/12/05 03:40:50;;;;;;;2.50;2.30;;;3.30;99.90;;;;;;493881;241;27518;-75
2021/12/05 03:42:51;;;;;;;3.95;2.35;;;3.30;99.90;;;;;;493858;241;27561;-75
2021/12/05 03:44:53;;;;;;;3.65;2.40;;;3.30;99.90;;;;;;493880;241;27639;-75
2021/12/05 03:46:54;;;;;;;4.37;2.78;;;3.30;99.90;;;;;;493873;241;27533;-75
2021/12/05 03:48:56;;;;;;;3.67;2.17;;;3.30;99.90;;;;;;493858;241;27902;-74
2021/12/05 03:50:56;;;;;;;2.53;2.33;;;3.30;99.90;;;;;;493863;241;27976;-74
2021/12/05 03:52:58;;;;;;;4.15;2.80;;;3.30;99.90;;;;;;493841;241;27974;-74
2021/12/05 03:54:59;;;;;;;3.53;2.40;;;3.30;99.90;;;;;;493830;241;29135;-74
2021/12/05 03:57:00;;;;;;;4.97;2.28;;;3.30;99.90;;;;;;493868;241;27509;-74
2021/12/05 03:59:02;;;;;;;5.55;2.58;;;3.20;99.90;;;;;;493847;241;27481;-74
2021/12/05 04:01:03;;;;;;;2.67;2.45;;;3.20;99.90;;;;;;493825;241;27580;-74
2021/12/05 04:03:04;;;;;;;2.70;2.50;;;3.20;99.90;;;;;;493856;241;27465;-75
2021/12/05 04:05:05;;;;;;;3.80;2.60;;;3.30;99.90;;;;;;493815;241;27528;-74
2021/12/05 04:07:06;;;;;;;4.15;2.78;;;3.30;99.90;;;;;;493847;241;27639;-74
2021/12/05 04:09:08;;;;;;;8.52;2.40;;;3.30;99.90;;;;;;493809;241;27485;-75
2021/12/05 04:11:09;;;;;;;4.45;2.60;;;3.30;99.90;;;;;;493839;241;27509;-75
2021/12/05 04:13:10;;;;;;;3.40;2.53;;;3.20;99.90;;;;;;493873;241;27464;-75
2021/12/05 04:15:11;;;;;;;2.10;2.00;;;3.20;99.90;;;;;;493835;241;27527;-75
2021/12/05 04:17:13;;;;;;;4.55;2.45;;;3.20;99.90;;;;;;493868;241;28001;-75
2021/12/05 04:19:14;;;;;;;6.10;2.85;;;3.20;99.90;;;;;;493865;241;27994;-75
2021/12/05 04:21:15;;;;;;;2.22;1.83;;;3.30;99.90;;;;;;493835;241;28107;-74
2021/12/05 04:23:16;;;;;;;2.85;2.05;;;3.20;99.90;;;;;;493852;241;27619;-75
2021/12/05 04:25:18;;;;;;;2.75;2.22;;;3.20;99.90;;;;;;493810;241;27509;-74
2021/12/05 04:27:19;;;;;;;3.67;2.10;;;3.20;99.90;;;;;;493862;241;27473;-75
2021/12/05 04:29:20;;;;;;;3.37;2.15;;;3.20;99.90;;;;;;493839;241;27470;-75
2021/12/05 04:31:21;;;;;;;3.05;1.83;;;3.20;99.90;;;;;;489810;240;27491;-75
2021/12/05 04:33:23;;;;;;;2.55;1.80;;;3.30;99.90;;;;;;489471;242;27451;-74
2021/12/05 04:35:24;;;;;;;5.97;2.45;;;3.20;99.90;;;;;;489515;242;27503;-74
2021/12/05 04:37:25;;;;;;;1.73;1.62;;;3.30;99.90;;;;;;489543;242;27419;-74
2021/12/05 04:39:26;;;;;;;2.78;1.83;;;3.20;99.90;;;;;;489557;242;27514;-75
2021/12/05 04:41:28;;;;;;;3.25;2.20;;;3.20;99.90;;;;;;489513;242;27500;-74
2021/12/05 04:43:36;;;;;;;2.90;2.10;;;3.20;99.90;;;;;;489580;242;27388;-74
2021/12/05 04:45:30;;;;;;;1.90;1.80;;;3.20;99.90;;;;;;489026;243;27975;-74
2021/12/05 04:47:31;;;;;;;5.53;2.75;;;3.10;99.90;;;;;;489473;242;28068;-74
2021/12/05 04:49:33;;;;;;;2.22;1.90;;;3.20;99.90;;;;;;489592;242;27831;-75
2021/12/05 04:51:34;;;;;;;3.35;1.98;;;3.20;99.90;;;;;;489620;242;27498;-74
2021/12/05 04:53:35;;;;;;;1.70;1.60;;;3.20;99.90;;;;;;489535;242;27444;-74
2021/12/05 04:55:36;;;;;;;3.25;1.60;;;3.20;99.90;;;;;;489591;242;27433;-75
2021/12/05 04:57:38;;;;;;;2.30;2.10;;;3.20;99.90;;;;;;489526;242;27506;-74
2021/12/05 04:59:45;;;;;;;2.15;1.70;;;3.20;99.90;;;;;;489570;242;27428;-74
2021/12/05 05:01:40;;;;;;;1.80;1.70;;;3.20;99.90;;;;;;489180;243;27537;-74
2021/12/05 05:03:41;;;;;;;2.25;2.05;;;3.20;99.90;;;;;;489603;242;27451;-74
2021/12/05 05:05:48;;;;;;;2.20;1.85;;;3.20;99.90;;;;;;489650;242;27447;-75
2021/12/05 05:07:44;;;;;;;1.75;1.65;;;3.20;99.90;;;;;;489250;243;27431;-74
2021/12/05 05:09:45;;;;;;;3.58;1.70;;;3.20;99.90;;;;;;489600;242;27371;-75
2021/12/05 05:11:46;;;;;;;3.67;1.95;;;3.10;99.90;;;;;;489598;242;27991;-74
2021/12/05 05:13:48;;;;;;;2.53;1.77;;;3.20;99.90;;;;;;489583;242;27844;-74
2021/12/05 05:15:49;;;;;;;3.15;1.80;;;3.20;99.90;;;;;;489568;242;27840;-74
2021/12/05 05:17:51;;;;;;;3.67;1.70;;;3.20;99.90;;;;;;489590;242;28992;-74
2021/12/05 05:19:56;;;;;;;1.70;1.60;;;3.20;99.90;;;;;;489548;242;27375;-75
2021/12/05 05:22:04;;;;;;;1.73;1.62;;;3.10;99.90;;;;;;489271;243;27442;-75
2021/12/05 05:24:17;;;;;;;1.80;1.70;;;3.10;99.90;;;;;;488750;243;27460;-74
2021/12/05 05:28:47;;;;;;;2.83;1.83;;;3.10;99.90;;;;;;489599;242;27490;-74
2021/12/05 05:30:48;;;;;;;1.65;1.55;;;3.10;99.90;;;;;;488099;243;27442;-75
2021/12/05 05:40:39;;;;;;;3.67;2.17;;;3.00;99.90;;;;;;486158;243;29047;-74
2021/12/05 05:46:11;;;;;;;1.92;1.73;;;3.00;99.90;;;;;;489554;242;27893;-75
2021/12/05 05:50:14;;;;;;;1.90;1.80;;;3.00;99.90;;;;;;489537;242;27411;-74
2021/12/05 05:52:15;;;;;;;2.00;1.62;;;3.00;99.90;;;;;;489575;242;29022;-75
2021/12/05 05:54:18;;;;;;;1.98;1.60;;;3.10;99.90;;;;;;489559;242;27975;-74
2021/12/05 05:56:24;;;;;;;1.62;1.50;;;3.10;99.90;;;;;;489480;243;27893;-74
2021/12/05 05:58:26;;;;;;;2.08;1.98;;;3.10;99.90;;;;;;489316;243;27886;-74
2021/12/05 06:00:34;;;;;;;2.20;1.80;;;3.10;99.90;;;;;;489278;243;27813;-74
2021/12/05 06:04:52;;;;;;;2.05;1.85;;;3.10;99.90;;;;;;489602;242;27835;-74
2021/12/05 06:06:54;;;;;;;3.17;1.83;;;3.10;99.90;;;;;;489571;242;28018;-74
2021/12/05 06:08:55;;;;;;;2.28;1.75;;;3.20;99.90;;;;;;489573;242;27467;-74
2021/12/05 06:10:57;;;;;;;2.50;2.30;;;3.20;99.90;;;;;;489559;242;27427;-74
2021/12/05 06:12:58;;;;;;;3.53;3.33;;;3.20;99.90;;;;;;489560;242;27525;-74
2021/12/05 06:14:59;;;;;;;4.50;4.10;;;3.20;99.90;;;;;;489535;242;27376;-74
2021/12/05 06:17:00;;;;;;;3.85;3.55;;;3.10;99.90;;;;;;489568;242;27419;-74
2021/12/05 06:19:01;;;;;;;3.80;3.55;;;3.10;99.90;;;;;;489557;242;27403;-74
2021/12/05 06:21:02;;;;;;;3.00;2.80;;;3.10;99.90;;;;;;489505;242;27427;-75
2021/12/05 06:23:04;;;;;;;3.00;2.80;;;3.10;99.90;;;;;;489443;242;27455;-74
2021/12/05 06:25:05;;;;;;;3.00;2.60;;;3.10;99.90;;;;;;489527;242;27381;-74
2021/12/05 06:27:06;;;;;;;5.97;2.70;;;3.10;99.90;;;;;;489515;242;27423;-75
2021/12/05 06:29:20;;;;;;;4.95;2.20;;;3.10;99.90;;;;;;489540;242;27813;-74
2021/12/05 06:31:26;;;;;;;3.67;2.25;;;3.20;99.90;;;;;;489310;243;27368;-74
2021/12/05 06:38:09;;;;;;;2.67;2.25;;;3.20;99.90;;;;;;489534;242;27854;-74
2021/12/05 06:42:46;;;;;;;2.40;2.20;;;3.10;99.90;;;;;;489588;242;27383;-74
2021/12/05 06:46:45;;;;;;;5.30;2.58;;;3.20;99.90;;;;;;489566;242;27424;-74
2021/12/05 06:48:46;;;;;;;2.65;2.28;;;3.20;99.90;;;;;;489575;242;27502;-75
2021/12/05 06:50:48;;;;;;;2.40;2.30;;;3.20;99.90;;;;;;489619;242;27439;-74
2021/12/05 06:52:49;;;;;;;2.37;2.15;;;3.20;99.90;;;;;;489585;242;27415;-74
2021/12/05 06:54:50;;;;;;;1.95;1.80;;;3.20;99.90;;;;;;489617;242;27375;-74
2021/12/05 06:56:51;;;;;;;3.47;2.00;;;3.20;99.90;;;;;;489579;242;27851;-75
2021/12/05 06:58:53;;;;;;;1.90;1.77;;;3.20;99.90;;;;;;489559;242;27908;-75
2021/12/05 07:00:54;;;;;;;3.22;2.25;;;3.20;99.90;;;;;;489565;242;27839;-74
2021/12/05 07:02:55;;;;;;;2.10;1.90;;;3.20;99.90;;;;;;489567;242;27881;-75
2021/12/05 07:06:58;;;;;;;2.17;1.98;;;3.20;99.90;;;;;;489559;242;27419;-74
2021/12/05 07:09:07;;;;;;;2.03;1.92;;;3.20;99.90;;;;;;489539;242;27450;-74
2021/12/05 07:11:12;;;;;;;6.35;2.15;;;3.20;99.90;;;;;;489192;243;27439;-73
2021/12/05 07:15:49;;;;;;;2.60;2.40;;;3.20;99.90;;;;;;489570;242;27451;-73
2021/12/05 07:22:20;;;;;;;3.78;1.80;;;3.20;99.90;;;;;;489573;242;27396;-73
2021/12/05 07:40:25;;;;;;;3.35;2.17;;;3.20;99.90;;;;;;489563;242;27419;-73
2021/12/05 07:42:24;;;;;;;2.72;2.22;;;3.20;99.90;;;;;;489222;243;27391;-73
2021/12/05 07:44:22;;;;;;;2.25;1.90;;;3.20;99.90;;;;;;489398;243;27431;-73
2021/12/05 07:46:23;;;;;;;1.80;1.70;;;3.10;99.90;;;;;;489542;242;27389;-73
2021/12/05 07:48:29;;;;;;;4.90;2.70;;;3.10;99.90;;;;;;489525;242;27534;-73
2021/12/05 07:50:39;;;;;;;2.28;2.17;;;3.20;99.90;;;;;;489251;243;27765;-74
2021/12/05 07:52:29;;;;;;;2.37;2.17;;;3.20;99.90;;;;;;488610;243;27423;-74
2021/12/05 07:54:40;;;;;;;4.03;2.50;;;3.20;99.90;;;;;;489449;242;27395;-73
2021/12/05 07:56:39;;;;;;;2.97;1.92;;;3.20;99.90;;;;;;488965;243;27474;-73
2021/12/05 07:58:54;;;;;;;2.45;2.30;;;3.20;99.90;;;;;;489100;243;27395;-73
2021/12/05 08:14:35;;;;;;;3.80;2.60;;;3.30;99.90;;;;;;485244;244;27678;-73
2021/12/05 08:16:30;;;;;;;2.50;2.10;;;3.30;99.90;;;;;;484619;245;27591;-74
2021/12/05 08:18:29;;;;;;;2.65;2.10;;;3.40;99.90;;;;;;484933;245;27564;-74
2021/12/05 08:20:30;;;;;;;3.17;2.20;;;3.40;99.90;;;;;;484964;245;27554;-73
2021/12/05 08:22:32;;;;;;;2.17;2.08;;;3.50;99.90;;;;;;484955;245;27615;-74
2021/12/05 08:24:35;;;;;;;1.77;1.67;;;3.50;99.90;;;;;;485153;245;27529;-74
2021/12/05 08:26:35;;;;;;;2.37;1.75;;;3.60;99.90;;;;;;485177;245;27579;-73
2021/12/05 08:28:56;;;;;;;4.55;1.85;;;3.60;99.90;;;;;;485131;245;28130;-74
2021/12/05 08:30:40;;;;;;;2.33;1.95;;;3.50;99.90;;;;;;484336;245;27532;-73
2021/12/05 08:33:10;;;;;;;2.12;1.37;;;3.50;99.90;;;;;;485303;245;27576;-74
2021/12/05 08:41:34;;;;;;;2.15;1.95;;;3.40;99.90;;;;;;485241;245;27647;-74
2021/12/05 09:20:45;;;;;;;1.67;1.58;;;3.40;99.90;;;;;;485232;245;27591;-73
2021/12/05 09:25:23;;;;;;;2.60;1.60;;;3.30;99.90;;;;;;485230;244;27545;-74
2021/12/05 09:38:48;;;;;;;1.83;1.48;;;3.30;99.90;;;;;;485227;244;27645;-74
2021/12/05 09:39:29;;;;;;;1.90;1.77;;;3.30;99.90;;;;;;484183;245;27686;-74
2021/12/05 09:53:09;;;;;;;2.35;1.90;;;3.60;99.90;;;;;;487631;243;27493;-74
2021/12/05 10:06:45;;;;;;;1.73;1.62;;;3.30;99.90;;;;;;487550;243;27485;-75
2021/12/05 10:12:43;;;;;;;2.60;2.00;;;3.50;99.90;;;;;;487585;243;28707;-74
2021/12/05 10:14:48;;;;;;;2.15;1.85;;;3.50;99.90;;;;;;486171;244;27480;-74
2021/12/05 10:16:43;;;;;;;1.73;1.62;;;3.50;99.90;;;;;;486619;244;27572;-74
2021/12/05 10:34:56;;;;;;;1.50;1.40;;;3.70;99.90;;;;;;487664;243;27926;-73
2021/12/05 10:36:40;;;;;;;1.70;1.60;;;3.80;99.90;;;;;;486292;244;27600;-74
2021/12/05 10:38:49;;;;;;;1.40;1.40;;;3.80;99.90;;;;;;487486;244;27374;-74
2021/12/05 10:40:47;;;;;;;1.50;1.40;;;3.70;99.90;;;;;;487051;244;28034;-73
2021/12/05 10:42:45;;;;;;;1.40;1.30;;;3.70;99.90;;;;;;487425;244;27599;-73
2021/12/05 10:44:46;;;;;;;1.60;1.50;;;3.70;99.90;;;;;;487604;244;27541;-73
2021/12/05 10:46:49;;;;;;;2.37;1.40;;;3.80;99.90;;;;;;487609;243;27604;-73
2021/12/05 10:48:49;;;;;;;1.65;1.52;;;3.90;99.90;;;;;;487503;243;27416;-74
2021/12/05 10:50:50;;;;;;;1.77;1.30;;;4.10;99.90;;;;;;487622;243;27554;-74
2021/12/05 10:52:51;;;;;;;1.40;1.30;;;4.20;99.90;;;;;;487514;243;27541;-74
2021/12/05 10:54:52;;;;;;;1.50;1.40;;;4.20;99.90;;;;;;487650;244;27928;-74
2021/12/05 10:56:55;;;;;;;1.80;1.30;;;4.30;99.90;;;;;;487621;243;27971;-74
2021/12/05 10:58:55;;;;;;;1.50;1.40;;;4.20;99.90;;;;;;487519;244;27508;-74
2021/12/05 11:00:56;;;;;;;1.98;1.52;;;4.10;99.90;;;;;;487645;243;27518;-73
2021/12/05 11:02:57;;;;;;;1.50;1.40;;;4.10;99.90;;;;;;487555;244;27558;-73
2021/12/05 11:04:59;;;;;;;1.30;1.23;;;4.10;99.90;;;;;;487564;243;27481;-73
2021/12/05 11:07:00;;;;;;;1.67;1.33;;;4.00;99.90;;;;;;487619;243;27517;-74
2021/12/05 11:09:01;;;;;;;1.40;1.40;;;4.00;99.90;;;;;;487578;243;27576;-74
2021/12/05 11:11:02;;;;;;;1.33;1.33;;;4.00;99.90;;;;;;487581;243;27565;-74
2021/12/05 11:13:04;;;;;;;1.65;1.55;;;4.00;99.90;;;;;;487634;244;27417;-74
2021/12/05 11:15:05;;;;;;;2.70;1.70;;;4.00;99.90;;;;;;487564;243;27505;-73
2021/12/05 11:17:06;;;;;;;1.70;1.25;;;4.00;99.90;;;;;;487571;243;27434;-74
2021/12/05 11:19:07;;;;;;;5.93;1.45;;;4.00;99.90;;;;;;487597;243;27900;-74
2021/12/05 11:21:09;;;;;;;1.62;1.52;;;4.00;99.90;;;;;;487638;243;28010;-73
2021/12/05 11:23:10;;;;;;;1.50;1.40;;;4.00;99.90;;;;;;487658;243;28025;-73
2021/12/05 11:25:11;;;;;;;1.45;1.40;;;4.10;99.90;;;;;;487610;243;27444;-74
2021/12/05 11:27:12;;;;;;;1.55;1.50;;;4.10;99.90;;;;;;487663;243;27457;-74
2021/12/05 11:29:14;;;;;;;1.45;1.40;;;4.10;99.90;;;;;;487587;243;27521;-73
2021/12/05 11:31:15;;;;;;;1.87;1.33;;;4.10;99.90;;;;;;487566;243;27575;-74
2021/12/05 11:33:20;;;;;;;1.73;1.60;;;4.20;99.90;;;;;;487640;244;27622;-73
2021/12/05 11:35:20;;;;;;;1.60;1.50;;;4.40;99.90;;;;;;487592;244;27655;-73
2021/12/05 11:37:21;;;;;;;2.60;1.40;;;4.50;99.90;;;;;;487530;243;27547;-74
2021/12/05 11:39:23;;;;;;;1.70;1.60;;;4.60;99.90;;;;;;487586;243;28149;-73
2021/12/05 11:41:24;;;;;;;1.27;1.27;;;4.70;99.90;;;;;;487572;244;27981;-76
2021/12/05 11:43:25;;;;;;;1.27;1.17;;;4.60;99.90;;;;;;487606;243;27923;-73
2021/12/05 11:45:26;;;;;;;3.08;1.20;;;4.40;99.90;;;;;;487633;244;27437;-76
2021/12/05 11:47:28;;;;;;;1.40;1.30;;;4.30;99.90;;;;;;487577;243;27667;-73
2021/12/05 11:49:29;;;;;;;1.30;1.30;;;4.20;99.90;;;;;;487622;244;27595;-76
2021/12/05 11:51:30;;;;;;;1.40;1.30;;;4.20;99.90;;;;;;487645;243;27643;-73
2021/12/05 11:53:31;;;;;;;1.50;1.40;;;4.30;99.90;;;;;;487491;243;27562;-73
2021/12/05 11:55:33;;;;;;;1.50;1.40;;;4.30;99.90;;;;;;487610;243;27547;-74
2021/12/05 11:57:34;;;;;;;1.40;1.30;;;4.30;99.90;;;;;;487584;243;27481;-73
2021/12/05 11:59:35;;;;;;;3.10;1.40;;;4.30;99.90;;;;;;487539;243;27605;-74
2021/12/05 12:01:36;;;;;;;1.20;1.20;;;4.30;99.90;;;;;;487631;243;27578;-73
2021/12/05 12:03:38;;;;;;;1.20;1.20;;;4.30;99.90;;;;;;487585;243;28051;-73
2021/12/05 12:05:39;;;;;;;1.60;1.50;;;4.20;99.90;;;;;;487514;243;27976;-73
2021/12/05 12:07:40;;;;;;;1.40;1.30;;;4.10;99.90;;;;;;487608;243;27994;-74
2021/12/05 12:09:41;;;;;;;1.58;1.30;;;4.10;99.90;;;;;;487576;243;28009;-73
2021/12/05 12:11:43;;;;;;;1.37;1.30;;;4.00;99.90;;;;;;487647;244;27616;-72
2021/12/05 12:13:46;;;;;;;1.50;1.40;;;4.10;99.90;;;;;;487643;243;27482;-73
2021/12/05 12:15:45;;;;;;;1.50;1.40;;;4.20;99.90;;;;;;487468;244;27445;-73
2021/12/05 12:17:47;;;;;;;1.20;1.20;;;4.20;99.90;;;;;;487530;244;27592;-72
2021/12/05 12:19:48;;;;;;;1.30;1.20;;;4.20;99.90;;;;;;487571;243;27678;-73
2021/12/05 12:21:52;;;;;;;1.40;1.40;;;4.30;99.90;;;;;;487536;243;27572;-73
2021/12/05 12:23:50;;;;;;;1.37;1.37;;;4.40;99.90;;;;;;487470;244;27513;-73
2021/12/05 12:25:51;;;;;;;1.25;1.23;;;4.50;99.90;;;;;;487628;244;27418;-73
2021/12/05 12:27:53;;;;;;;1.62;1.40;;;4.60;99.90;;;;;;487567;244;27498;-75
2021/12/05 12:29:54;;;;;;;1.95;1.85;;;4.50;99.90;;;;;;487571;244;28008;-75
2021/12/05 12:31:55;;;;;;;1.50;1.40;;;4.50;99.90;;;;;;487582;244;28102;-75
2021/12/05 12:33:56;;;;;;;1.20;1.20;;;4.50;99.90;;;;;;487419;243;27642;-73
2021/12/05 12:35:58;;;;;;;1.20;1.20;;;4.50;99.90;;;;;;487432;243;27553;-73
2021/12/05 12:37:59;;;;;;;1.60;1.30;;;4.50;99.90;;;;;;487627;243;27468;-73
2021/12/05 12:40:00;;;;;;;1.30;1.20;;;4.50;99.90;;;;;;487620;243;27511;-75
2021/12/05 12:42:01;;;;;;;1.60;1.50;;;4.50;99.90;;;;;;487662;244;27525;-73
2021/12/05 12:44:03;;;;;;;1.30;1.20;;;4.60;99.90;;;;;;487672;243;27485;-73
2021/12/05 12:46:04;;;;;;;1.33;1.20;;;4.70;99.90;;;;;;487645;243;27427;-73
2021/12/05 12:48:05;;;;;;;1.50;1.40;;;4.80;99.90;;;;;;487635;243;27615;-75
2021/12/05 12:50:06;;;;;;;1.30;1.20;;;4.90;99.90;;;;;;487658;243;27624;-76
2021/12/05 12:52:08;;;;;;;1.30;1.20;;;4.90;99.90;;;;;;487689;243;27541;-75
2021/12/05 12:54:09;;;;;;;1.30;1.30;;;4.90;99.90;;;;;;487662;243;27945;-75
2021/12/05 12:56:18;;;;;;;1.30;1.20;;;4.90;99.90;;;;;;487682;243;27962;-75
2021/12/05 12:58:11;;;;;;;1.87;1.25;;;4.80;99.90;;;;;;487150;244;28015;-75
2021/12/05 13:00:15;;;;;;;1.40;1.30;;;4.70;99.90;;;;;;487678;243;27512;-75
2021/12/05 13:11:01;;;;;;;1.52;1.42;;;4.60;99.90;;;;;;487620;243;29068;-73
2021/12/05 13:13:03;;;;;;;1.62;1.52;;;4.60;99.90;;;;;;487633;244;28007;-73
2021/12/05 13:15:04;;;;;;;1.30;1.30;;;4.50;99.90;;;;;;487675;243;27504;-73
2021/12/05 13:17:05;;;;;;;1.12;1.12;;;4.50;99.90;;;;;;487679;243;27468;-75
2021/12/05 13:19:06;;;;;;;1.40;1.30;;;4.50;99.90;;;;;;487663;244;27506;-74
2021/12/05 13:21:08;;;;;;;1.48;1.37;;;4.40;99.90;;;;;;487686;243;27432;-73
2021/12/05 13:23:09;;;;;;;1.92;1.30;;;4.40;99.90;;;;;;487664;243;27592;-73
2021/12/05 13:25:12;;;;;;;1.23;1.23;;;4.40;99.90;;;;;;487667;244;27468;-73
2021/12/05 13:27:12;;;;;;;1.55;1.45;;;4.40;99.90;;;;;;487601;244;27442;-73
2021/12/05 13:29:13;;;;;;;1.90;1.67;;;4.40;99.90;;;;;;487656;243;27908;-73
2021/12/05 13:31:14;;;;;;;2.92;1.20;;;4.40;99.90;;;;;;487664;243;28031;-73
2021/12/05 13:33:15;;;;;;;1.85;1.50;;;4.40;99.90;;;;;;487685;243;27907;-72
2021/12/05 13:35:17;;;;;;;1.48;1.20;;;4.30;99.90;;;;;;487682;243;28075;-72
2021/12/05 13:37:18;;;;;;;1.45;1.40;;;4.30;99.90;;;;;;487654;243;27509;-73
2021/12/05 13:39:19;;;;;;;1.75;1.65;;;4.20;99.90;;;;;;487637;243;27425;-72
2021/12/05 13:41:20;;;;;;;1.50;1.40;;;4.30;99.90;;;;;;487686;243;27456;-73
2021/12/05 13:43:22;;;;;;;1.30;1.30;;;4.30;99.90;;;;;;487635;243;27538;-73
2021/12/05 13:45:23;;;;;;;1.20;1.20;;;4.30;99.90;;;;;;487666;243;27521;-73
2021/12/05 13:47:29;;;;;;;1.70;1.55;;;4.30;99.90;;;;;;487665;243;27531;-75
2021/12/05 13:49:25;;;;;;;1.30;1.20;;;4.30;99.90;;;;;;487318;244;27589;-75
2021/12/05 13:51:27;;;;;;;1.60;1.20;;;4.40;99.90;;;;;;487635;243;27512;-72
2021/12/05 13:53:28;;;;;;;2.28;1.65;;;4.40;99.90;;;;;;487642;244;27532;-73
2021/12/05 13:55:29;;;;;;;1.20;1.20;;;4.40;99.90;;;;;;487677;243;27913;-73
2021/12/05 13:57:30;;;;;;;1.60;1.50;;;4.40;99.90;;;;;;487671;243;27956;-75
2021/12/05 13:59:32;;;;;;;1.30;1.30;;;4.40;99.90;;;;;;487673;243;28135;-73
2021/12/05 14:01:33;;;;;;;1.50;1.50;;;4.30;99.90;;;;;;487640;244;27481;-73
2021/12/05 14:03:34;;;;;;;1.42;1.33;;;4.30;99.90;;;;;;487680;244;27489;-73
2021/12/05 14:05:36;;;;;;;1.90;1.80;;;4.30;99.90;;;;;;487685;243;27605;-75
2021/12/05 14:07:37;;;;;;;1.60;1.50;;;4.30;99.90;;;;;;487692;243;27488;-72
2021/12/05 14:09:38;;;;;;;1.95;1.60;;;4.20;99.90;;;;;;487684;243;27519;-73
2021/12/05 14:11:40;;;;;;;1.73;1.62;;;4.10;99.90;;;;;;487649;243;27834;-73
2021/12/05 14:13:41;;;;;;;3.53;1.30;;;4.10;99.90;;;;;;487695;243;27931;-73
2021/12/05 14:15:42;;;;;;;1.77;1.67;;;4.10;99.90;;;;;;487680;244;27928;-73
2021/12/05 14:17:48;;;;;;;1.58;1.50;;;4.10;99.90;;;;;;487659;243;29023;-73
2021/12/05 14:19:45;;;;;;;1.40;1.40;;;4.20;99.90;;;;;;487401;244;27381;-73
2021/12/05 14:21:46;;;;;;;1.70;1.60;;;4.20;99.90;;;;;;487708;243;27493;-74
2021/12/05 14:23:47;;;;;;;1.55;1.45;;;4.20;99.90;;;;;;487688;244;27461;-72
2021/12/05 14:25:48;;;;;;;1.60;1.50;;;4.20;99.90;;;;;;487707;243;27514;-73
2021/12/05 14:27:50;;;;;;;1.58;1.48;;;4.20;99.90;;;;;;487666;243;27516;-72
2021/12/05 14:29:51;;;;;;;1.30;1.30;;;4.20;99.90;;;;;;487711;243;27604;-73
2021/12/05 14:31:52;;;;;;;1.50;1.35;;;4.10;99.90;;;;;;487696;243;27460;-72
2021/12/05 14:33:53;;;;;;;1.70;1.60;;;4.10;99.90;;;;;;487671;243;27403;-73
2021/12/05 14:35:55;;;;;;;1.45;1.40;;;4.20;99.90;;;;;;487672;244;27417;-73
2021/12/05 14:37:56;;;;;;;1.20;1.20;;;4.20;99.90;;;;;;487659;243;28548;-73
2021/12/05 14:39:59;;;;;;;1.10;1.10;;;4.20;99.90;;;;;;487678;243;27930;-73
2021/12/05 14:41:58;;;;;;;1.58;1.48;;;4.20;99.90;;;;;;487556;244;28097;-73
2021/12/05 14:44:00;;;;;;;1.35;1.35;;;4.20;99.90;;;;;;487417;243;29016;-73
2021/12/05 14:46:01;;;;;;;1.30;1.30;;;4.20;99.90;;;;;;487627;243;27495;-74
2021/12/05 14:48:03;;;;;;;1.42;1.33;;;4.00;99.90;;;;;;486928;241;27624;-73
2021/12/05 14:50:04;;;;;;;1.50;1.40;;;3.90;99.90;;;;;;485164;245;28163;-73
2021/12/05 14:52:05;;;;;;;1.50;1.40;;;3.80;99.90;;;;;;487290;240;28043;-73
2021/12/05 14:54:07;;;;;;;3.05;1.50;;;3.80;99.90;;;;;;495708;240;27405;-73
2021/12/05 14:56:08;;;;;;;1.60;1.40;;;3.80;99.90;;;;;;495688;240;27474;-73
2021/12/05 14:58:09;;;;;;;1.40;1.30;;;3.70;99.90;;;;;;495658;240;27970;-73
2021/12/05 15:00:10;;;;;;;1.73;1.62;;;3.70;99.90;;;;;;495730;240;28007;-73
2021/12/05 15:02:12;;;;;;;1.73;1.30;;;3.70;99.90;;;;;;495689;240;27922;-73
2021/12/05 15:04:13;;;;;;;1.70;1.60;;;3.60;99.90;;;;;;495618;240;27886;-73
2021/12/05 15:06:14;;;;;;;1.30;1.27;;;3.50;99.90;;;;;;495691;240;27556;-73
2021/12/05 15:08:15;;;;;;;1.30;1.30;;;3.50;99.90;;;;;;495691;240;27394;-74
2021/12/05 15:10:17;;;;;;;1.15;1.10;;;3.60;99.90;;;;;;495664;239;27523;-73
2021/12/05 15:12:20;;;;;;;1.52;1.50;;;3.60;99.90;;;;;;495697;240;27412;-73
2021/12/05 15:14:19;;;;;;;1.45;1.35;;;3.40;99.90;;;;;;495603;240;27436;-73
2021/12/05 15:16:20;;;;;;;1.45;1.45;;;3.30;99.90;;;;;;495665;240;27469;-72
2021/12/05 15:18:29;;;;;;;1.70;1.60;;;3.40;99.90;;;;;;495686;240;27495;-73
2021/12/05 15:20:23;;;;;;;1.73;1.50;;;3.50;99.90;;;;;;495371;240;27476;-73
2021/12/05 15:22:24;;;;;;;1.73;1.62;;;3.50;99.90;;;;;;495727;240;27385;-73